createdAt,value
2022-11-12T00:00:34.148Z,4.78
2022-11-12T00:04:32.604Z,4.70
2022-11-12T00:08:10.911Z,4.55
2022-11-12T00:12:02.568Z,4.70
2022-11-12T00:15:40.969Z,4.00
2022-11-12T00:19:32.544Z,5.00
2022-11-12T00:23:10.822Z,4.60
2022-11-12T00:27:02.619Z,4.80
2022-11-12T00:30:41.371Z,4.10
2022-11-12T00:34:33.501Z,4.73
2022-11-12T00:38:11.750Z,4.30
2022-11-12T00:42:03.538Z,5.53
2022-11-12T00:45:43.536Z,4.45
2022-11-12T00:49:35.537Z,4.40
2022-11-12T00:53:13.820Z,5.47
2022-11-12T00:57:05.504Z,4.47
2022-11-12T01:00:43.790Z,4.33
2022-11-12T01:04:35.784Z,4.10
2022-11-12T01:08:13.931Z,4.32
2022-11-12T01:12:05.534Z,4.27
2022-11-12T01:16:04.879Z,4.43
2022-11-12T01:19:57.528Z,4.30
2022-11-12T01:23:38.620Z,4.20
2022-11-12T01:27:30.536Z,3.93
2022-11-12T01:31:23.584Z,4.30
2022-11-12T01:35:15.539Z,4.28
2022-11-12T01:38:54.601Z,4.73
2022-11-12T01:42:46.562Z,3.33
2022-11-12T01:46:28.605Z,3.55
2022-11-12T01:50:22.552Z,4.03
2022-11-12T01:54:03.571Z,4.07
2022-11-12T01:58:03.583Z,3.83
2022-11-12T02:01:48.680Z,3.72
2022-11-12T02:05:35.632Z,4.00
2022-11-12T02:09:20.620Z,4.00
2022-11-12T02:13:31.543Z,3.10
2022-11-12T02:17:09.593Z,3.53
2022-11-12T02:21:05.570Z,3.42
2022-11-12T02:24:44.626Z,3.85
2022-11-12T02:28:37.565Z,3.40
2022-11-12T02:32:16.621Z,4.05
2022-11-12T02:36:08.569Z,4.50
2022-11-12T02:39:46.616Z,3.72
2022-11-12T02:43:38.625Z,3.60
2022-11-12T02:47:16.640Z,4.25
2022-11-12T02:51:08.555Z,4.20
2022-11-12T02:54:46.737Z,4.30
2022-11-12T02:58:38.549Z,4.10
2022-11-12T03:02:16.609Z,4.32
2022-11-12T03:06:08.824Z,3.57
2022-11-12T03:09:47.607Z,3.90
2022-11-12T03:13:39.580Z,4.13
2022-11-12T03:17:17.622Z,4.15
2022-11-12T03:21:09.612Z,3.63
2022-11-12T03:24:47.717Z,3.72
2022-11-12T03:28:39.589Z,3.55
2022-11-12T03:32:17.646Z,4.07
2022-11-12T03:36:10.580Z,3.90
2022-11-12T03:39:48.654Z,4.10
2022-11-12T03:43:40.639Z,3.90
2022-11-12T03:47:18.613Z,4.10
2022-11-12T03:51:10.576Z,3.72
2022-11-12T03:54:48.685Z,4.18
2022-11-12T03:58:40.615Z,3.73
2022-11-12T04:02:18.702Z,3.53
2022-11-12T04:06:29.035Z,3.42
2022-11-12T04:10:07.630Z,3.07
2022-11-12T04:13:59.629Z,3.95
2022-11-12T04:17:56.249Z,3.75
2022-11-12T04:22:03.611Z,3.70
2022-11-12T04:26:00.587Z,3.80
2022-11-12T04:30:15.732Z,3.30
2022-11-12T04:34:16.731Z,4.30
2022-11-12T04:38:08.608Z,3.43
2022-11-12T04:42:05.206Z,3.78
2022-11-12T04:46:00.633Z,3.80
2022-11-12T04:49:38.666Z,3.17
2022-11-12T04:53:30.629Z,3.72
2022-11-12T04:57:15.692Z,3.78
2022-11-12T05:01:00.692Z,3.20
2022-11-12T05:04:46.657Z,3.10
2022-11-12T05:08:32.036Z,3.50
2022-11-12T05:12:16.733Z,3.53
2022-11-12T05:16:01.637Z,2.97
2022-11-12T05:19:46.645Z,3.17
2022-11-12T05:23:38.647Z,3.30
2022-11-12T05:27:20.664Z,3.00
2022-11-12T05:31:12.648Z,2.70
2022-11-12T05:34:51.660Z,2.90
2022-11-12T05:38:45.652Z,3.22
2022-11-12T05:42:23.749Z,3.93
2022-11-12T05:46:15.638Z,3.03
2022-11-12T05:49:53.694Z,3.88
2022-11-12T05:53:46.636Z,3.47
2022-11-12T05:57:24.705Z,3.55
2022-11-12T06:01:16.641Z,3.83
2022-11-12T06:04:55.946Z,3.43
2022-11-12T06:09:03.082Z,3.30
2022-11-12T06:13:01.604Z,3.20
2022-11-12T06:16:53.671Z,3.05
2022-11-12T06:20:38.668Z,3.10
2022-11-12T06:24:23.715Z,2.78
2022-11-12T06:28:08.791Z,3.33
2022-11-12T06:31:53.663Z,3.40
2022-11-12T06:35:42.807Z,3.40
2022-11-12T06:39:27.670Z,3.33
2022-11-12T06:43:12.709Z,3.50
2022-11-12T06:46:57.670Z,3.92
2022-11-12T06:50:42.710Z,3.90
2022-11-12T06:54:27.680Z,4.20
2022-11-12T06:58:12.740Z,3.80
2022-11-12T07:01:57.754Z,3.47
2022-11-12T07:05:43.764Z,3.60
2022-11-12T07:09:35.929Z,3.60
2022-11-12T07:13:14.770Z,3.67
2022-11-12T07:17:06.697Z,3.45
2022-11-12T07:20:51.823Z,3.27
2022-11-12T07:24:36.677Z,3.72
2022-11-12T07:28:21.788Z,3.88
2022-11-12T07:32:06.748Z,3.10
2022-11-12T07:35:51.732Z,3.87
2022-11-12T07:39:36.755Z,3.47
2022-11-12T07:43:21.791Z,3.08
2022-11-12T07:47:06.760Z,3.37
2022-11-12T07:50:51.703Z,3.47
2022-11-12T07:54:36.695Z,3.58
2022-11-12T07:58:21.775Z,3.30
2022-11-12T08:02:06.684Z,3.78
2022-11-12T08:05:52.782Z,4.38
2022-11-12T08:09:38.099Z,3.75
2022-11-12T08:13:22.755Z,4.03
2022-11-12T08:17:14.691Z,4.38
2022-11-12T08:20:52.811Z,4.43
2022-11-12T08:24:44.701Z,4.30
2022-11-12T08:28:22.736Z,3.95
2022-11-12T08:32:14.717Z,4.35
2022-11-12T08:35:52.748Z,3.70
2022-11-12T08:39:44.917Z,4.63
2022-11-12T08:43:23.771Z,4.60
2022-11-12T08:47:15.719Z,4.90
2022-11-12T08:50:53.873Z,4.70
2022-11-12T08:54:45.709Z,4.77
2022-11-12T08:58:24.078Z,4.32
2022-11-12T09:02:20.819Z,4.78
2022-11-12T09:05:59.802Z,4.73
2022-11-12T09:09:52.139Z,4.82
2022-11-12T09:13:36.811Z,4.38
2022-11-12T09:17:21.724Z,6.13
2022-11-12T09:21:12.887Z,4.80
2022-11-12T09:24:57.809Z,5.28
2022-11-12T09:28:43.009Z,5.65
2022-11-12T09:32:27.793Z,6.63
2022-11-12T09:36:13.975Z,5.68
2022-11-12T09:39:58.721Z,6.43
2022-11-12T09:43:49.878Z,7.40
2022-11-12T09:47:50.737Z,6.40
2022-11-12T09:51:41.778Z,7.00
2022-11-12T09:56:03.754Z,6.32
2022-11-12T10:00:02.726Z,7.07
2022-11-12T10:04:03.746Z,7.70
2022-11-12T10:08:15.768Z,6.97
2022-11-12T10:12:37.997Z,7.72
2022-11-12T10:16:44.846Z,8.10
2022-11-12T10:20:44.727Z,7.00
2022-11-12T10:24:30.832Z,7.72
2022-11-12T10:28:41.777Z,7.47
2022-11-12T10:32:26.800Z,7.70
2022-11-12T10:36:42.813Z,7.93
2022-11-12T10:40:28.145Z,7.75
2022-11-12T10:44:19.789Z,8.25
2022-11-12T10:48:05.837Z,7.37
2022-11-12T10:52:01.771Z,8.10
2022-11-12T10:56:05.033Z,8.07
2022-11-12T10:59:49.759Z,8.30
2022-11-12T11:03:41.810Z,9.00
2022-11-12T11:07:33.822Z,8.77
2022-11-12T11:11:31.875Z,8.77
2022-11-12T11:15:32.101Z,8.13
2022-11-12T11:19:12.811Z,8.53
2022-11-12T11:23:26.872Z,8.90
2022-11-12T11:27:17.837Z,8.55
2022-11-12T11:31:23.814Z,9.33
2022-11-12T11:35:29.274Z,7.90
2022-11-12T11:39:31.793Z,8.68
2022-11-12T11:43:24.830Z,9.40
2022-11-12T11:47:38.594Z,9.07
2022-11-12T11:51:59.136Z,8.87
2022-11-12T11:56:06.804Z,8.27
2022-11-12T12:00:10.906Z,8.50
2022-11-12T12:04:20.833Z,8.57
2022-11-12T12:08:09.983Z,8.50
2022-11-12T12:12:11.812Z,9.32
2022-11-12T12:16:00.111Z,8.75
2022-11-12T12:19:55.106Z,8.67
2022-11-12T12:23:39.852Z,8.43
2022-11-12T12:27:36.867Z,8.65
2022-11-12T12:31:22.904Z,8.20
2022-11-12T12:35:27.835Z,8.63
2022-11-12T12:39:25.876Z,8.23
2022-11-12T12:43:26.902Z,8.77
2022-11-12T12:47:07.883Z,7.80
2022-11-12T12:51:00.837Z,7.65
2022-11-12T12:54:41.888Z,7.90
2022-11-12T12:58:49.857Z,10.07
2022-11-12T13:02:30.877Z,9.43
2022-11-12T13:06:31.930Z,10.23
2022-11-12T13:10:47.299Z,9.23
2022-11-12T13:14:41.831Z,9.93
2022-11-12T13:18:44.896Z,10.32
2022-11-12T13:23:01.362Z,8.85
2022-11-12T13:26:45.940Z,9.27
2022-11-12T13:30:37.805Z,9.40
2022-11-12T13:34:31.912Z,9.82
2022-11-12T13:38:24.054Z,9.32
2022-11-12T13:42:24.674Z,9.77
2022-11-12T13:46:27.851Z,8.32
2022-11-12T13:50:07.879Z,8.02
2022-11-12T13:53:59.835Z,9.20
2022-11-12T13:57:38.893Z,8.27
2022-11-12T14:01:31.876Z,8.73
2022-11-12T14:05:20.885Z,8.05
2022-11-12T14:09:24.869Z,10.47
2022-11-12T14:13:47.928Z,8.90
2022-11-12T14:17:44.859Z,8.40
2022-11-12T14:21:24.875Z,7.32
2022-11-12T14:25:29.988Z,7.23
2022-11-12T14:29:08.892Z,7.32
2022-11-12T14:33:05.928Z,7.13
2022-11-12T14:36:44.931Z,7.50
2022-11-12T14:40:38.878Z,7.40
2022-11-12T14:44:26.923Z,7.65
2022-11-12T14:48:20.902Z,8.27
2022-11-12T14:52:10.966Z,7.00
2022-11-12T14:56:05.794Z,7.73
2022-11-12T14:59:43.968Z,7.72
2022-11-12T15:03:38.889Z,7.10
2022-11-12T15:07:36.920Z,7.40
2022-11-12T15:11:38.874Z,7.83
2022-11-12T15:15:26.980Z,8.57
2022-11-12T15:19:32.941Z,7.22
2022-11-12T15:23:11.946Z,8.20
2022-11-12T15:27:07.437Z,8.13
2022-11-12T15:30:45.945Z,8.52
2022-11-12T15:34:51.913Z,8.07
2022-11-12T15:38:37.861Z,7.97
2022-11-12T15:42:42.906Z,8.47
2022-11-12T15:46:21.988Z,9.13
2022-11-12T15:50:19.900Z,9.25
2022-11-12T15:53:57.936Z,8.47
2022-11-12T15:57:58.915Z,8.67
2022-11-12T16:01:36.949Z,8.98
2022-11-12T16:05:28.971Z,7.90
2022-11-12T16:09:07.091Z,9.07
2022-11-12T16:13:00.902Z,8.50
2022-11-12T16:16:40.061Z,9.75
2022-11-12T16:20:34.965Z,9.70
2022-11-12T16:24:13.954Z,8.80
2022-11-12T16:28:08.460Z,8.63
2022-11-12T16:31:48.005Z,9.20
2022-11-12T16:35:41.941Z,10.33
2022-11-12T16:39:19.932Z,10.53
2022-11-12T16:43:11.916Z,11.63
2022-11-12T16:46:49.972Z,12.32
2022-11-12T16:50:41.918Z,12.17
2022-11-12T16:54:19.970Z,11.13
2022-11-12T16:58:11.931Z,11.65
2022-11-12T17:01:50.005Z,11.98
2022-11-12T17:05:41.940Z,12.00
2022-11-12T17:09:22.980Z,12.57
2022-11-12T17:13:17.946Z,13.02
2022-11-12T17:16:55.989Z,12.23
2022-11-12T17:20:51.241Z,12.00
2022-11-12T17:24:33.025Z,12.02
2022-11-12T17:28:25.376Z,11.40
2022-11-12T17:32:11.033Z,12.03
2022-11-12T17:35:55.977Z,12.37
2022-11-12T17:39:40.983Z,15.48
2022-11-12T17:43:32.948Z,15.88
2022-11-12T17:47:10.968Z,13.63
2022-11-12T17:51:24.166Z,12.93
2022-11-12T17:55:02.983Z,14.68
2022-11-12T17:58:57.962Z,14.75
2022-11-12T18:02:35.977Z,19.07
2022-11-12T18:06:38.975Z,15.30
2022-11-12T18:10:19.517Z,14.27
2022-11-12T18:14:15.956Z,13.45
2022-11-12T18:17:54.078Z,15.73
2022-11-12T18:21:46.989Z,16.07
2022-11-12T18:25:25.090Z,15.48
2022-11-12T18:29:17.339Z,13.45
2022-11-12T18:32:56.019Z,14.20
2022-11-12T18:36:47.983Z,11.53
2022-11-12T18:40:27.071Z,11.90
2022-11-12T18:44:23.272Z,12.55
2022-11-12T18:48:04.023Z,14.80
2022-11-12T18:51:56.020Z,17.57
2022-11-12T18:55:34.013Z,15.63
2022-11-12T18:59:25.982Z,14.02
2022-11-12T19:03:04.029Z,13.97
2022-11-12T19:06:56.066Z,17.17
2022-11-12T19:10:34.040Z,15.05
2022-11-12T19:14:26.004Z,14.13
2022-11-12T19:18:04.016Z,15.37
2022-11-12T19:21:55.985Z,15.30
2022-11-12T19:25:34.059Z,14.18
2022-11-12T19:29:26.456Z,13.85
2022-11-12T19:33:05.050Z,19.23
2022-11-12T19:37:19.252Z,14.75
2022-11-12T19:40:55.036Z,16.05
2022-11-12T19:44:46.987Z,16.00
2022-11-12T19:48:25.406Z,18.27
2022-11-12T19:52:17.009Z,19.13
2022-11-12T19:55:55.164Z,14.23
2022-11-12T19:59:47.017Z,15.83
2022-11-12T20:03:25.828Z,17.85
2022-11-12T20:07:17.085Z,14.57
2022-11-12T20:10:55.084Z,15.80
2022-11-12T20:14:47.032Z,26.40
2022-11-12T20:18:26.472Z,16.65
2022-11-12T20:22:19.046Z,17.75
2022-11-12T20:25:59.060Z,18.93
2022-11-12T20:29:51.452Z,15.87
2022-11-12T20:33:30.375Z,16.15
2022-11-12T20:37:29.040Z,15.60
2022-11-12T20:41:30.017Z,16.93
2022-11-12T20:45:22.027Z,14.87
2022-11-12T20:49:01.117Z,13.20
2022-11-12T20:52:53.012Z,14.52
2022-11-12T20:56:33.123Z,14.63
2022-11-12T21:00:25.048Z,13.73
2022-11-12T21:04:04.077Z,15.07
2022-11-12T21:07:56.126Z,14.70
2022-11-12T21:11:35.119Z,16.93
2022-11-12T21:15:27.043Z,15.97
2022-11-12T21:19:09.095Z,15.68
2022-11-12T21:23:01.087Z,15.80
2022-11-12T21:26:39.114Z,19.57
2022-11-12T21:30:33.616Z,23.70
2022-11-12T21:34:12.160Z,21.25
2022-11-12T21:38:04.043Z,18.05
2022-11-12T21:41:42.101Z,18.77
2022-11-12T21:45:34.100Z,16.20
2022-11-12T21:49:13.128Z,17.77
2022-11-12T21:53:05.070Z,20.00
2022-11-12T21:56:45.127Z,21.80
2022-11-12T22:00:42.010Z,19.30
2022-11-12T22:04:21.330Z,17.23
2022-11-12T22:08:13.102Z,17.23
2022-11-12T22:11:51.127Z,16.30
2022-11-12T22:15:43.080Z,18.00
2022-11-12T22:19:28.122Z,19.95
2022-11-12T22:23:13.123Z,21.10
2022-11-12T22:27:01.270Z,18.40
2022-11-12T22:30:50.183Z,54.42
2022-11-12T22:34:35.166Z,32.22
2022-11-12T22:38:20.087Z,22.90
2022-11-12T22:42:05.121Z,41.83
2022-11-12T22:45:50.079Z,32.45
2022-11-12T22:49:36.124Z,22.17
2022-11-12T22:53:28.120Z,20.07
2022-11-12T22:57:07.140Z,18.95
2022-11-12T23:00:59.182Z,21.95
2022-11-12T23:04:38.209Z,24.00
2022-11-12T23:08:30.378Z,23.50
2022-11-12T23:12:09.180Z,19.20
2022-11-12T23:16:01.109Z,17.17
2022-11-12T23:19:39.198Z,17.37
2022-11-12T23:23:31.134Z,19.23
2022-11-12T23:27:09.132Z,18.58
2022-11-12T23:31:01.354Z,21.58
2022-11-12T23:34:40.503Z,26.17
2022-11-12T23:38:32.120Z,27.35
2022-11-12T23:42:10.235Z,25.75
2022-11-12T23:46:02.157Z,23.70
2022-11-12T23:49:40.181Z,24.17
2022-11-12T23:53:32.206Z,23.77
2022-11-12T23:57:11.231Z,26.05
